SCVD/ZAL METAR and TAF weather

Enter ICAO airport designator
Station Type Date Time Source
SCVD METAR 2019/06/17 07:00 UTC NOAA

SCVD 170700Z AUTO VRB02KT 2300 R35/0900VP2000U FG VV001 M01/M01 Q1019


Station Type Date Time Source
SCVD Decoded METAR 2019/06/17 07:00 UTC NOAA

Valdivia, Chile (SCVD) 39-37S 073-05W
Jun 17, 2019 - 03:00 AM EDT / 2019.06.17 0700 UTC
Wind: Variable at 2 MPH (2 KT):0
Visibility: 1 mile(s):0
Sky conditions: obscured
Weather: fog
Temperature: 30 F (-1 C)
Dew Point: 30 F (-1 C)
Relative Humidity: 100%
Pressure (altimeter): 30.09 in. Hg (1019 hPa)
ob: SCVD 170700Z AUTO VRB02KT 2300 R35/0900VP2000U FG VV001 M01/M01 Q1019
cycle: 7

Station Type Date Time Source
SCVD TAF 2019/06/16 12:00 UTC NOAA

TAF SCVD 161104Z 1612/1624 12005KT CAVOK TN01/1612Z TX13/1619Z
BECMG 1614/1616 15010KT

Example: see airport list